createdAt,value
2023-03-21T00:01:00.271Z,7.31
2023-03-21T00:03:27.383Z,7.34
2023-03-21T00:05:55.380Z,7.23
2023-03-21T00:08:24.360Z,7.12
2023-03-21T00:10:59.478Z,7.04
2023-03-21T00:13:28.367Z,7.32
2023-03-21T00:16:10.210Z,7.27
2023-03-21T00:18:42.318Z,6.95
2023-03-21T00:24:00.873Z,7.24
2023-03-21T00:26:28.045Z,7.14
2023-03-21T00:28:54.883Z,7.23
2023-03-21T00:31:21.801Z,7.42
2023-03-21T00:33:50.094Z,7.30
2023-03-21T00:36:17.370Z,7.25
2023-03-21T00:38:44.478Z,7.30
2023-03-21T00:41:54.546Z,7.27
2023-03-21T00:44:21.498Z,7.08
2023-03-21T00:47:00.781Z,7.45
2023-03-21T00:49:34.774Z,7.32
2023-03-21T00:52:38.123Z,7.23
2023-03-21T00:54:53.712Z,7.41
2023-03-21T00:57:29.313Z,7.49
2023-03-21T00:59:59.506Z,7.17
2023-03-21T01:02:26.983Z,7.26
2023-03-21T01:04:54.537Z,7.34
2023-03-21T01:07:21.627Z,7.25
2023-03-21T01:09:48.676Z,7.18
2023-03-21T01:12:15.527Z,7.30
2023-03-21T01:14:42.572Z,7.36
2023-03-21T01:17:09.451Z,7.24
2023-03-21T01:19:50.539Z,7.29
2023-03-21T01:22:18.352Z,7.46
2023-03-21T01:24:53.881Z,7.23
2023-03-21T01:27:23.875Z,7.08
2023-03-21T01:29:51.050Z,7.29
2023-03-21T01:32:18.013Z,7.29
2023-03-21T01:34:45.204Z,7.20
2023-03-21T01:37:12.014Z,7.41
2023-03-21T01:39:45.823Z,7.45
2023-03-21T01:42:15.932Z,7.17
2023-03-21T01:45:03.186Z,7.28
2023-03-21T01:47:44.529Z,7.32
2023-03-21T01:50:25.673Z,7.09
2023-03-21T01:53:16.345Z,7.24
2023-03-21T01:55:43.510Z,7.19
2023-03-21T01:58:24.355Z,7.10
2023-03-21T02:01:06.600Z,7.08
2023-03-21T02:03:50.702Z,7.27
2023-03-21T02:06:49.540Z,7.09
2023-03-21T02:09:37.852Z,7.09
2023-03-21T02:12:11.369Z,7.33
2023-03-21T02:14:39.265Z,7.17
2023-03-21T02:17:27.392Z,7.16
2023-03-21T02:20:15.082Z,7.35
2023-03-21T02:23:13.013Z,7.16
2023-03-21T02:26:01.843Z,7.16
2023-03-21T02:28:35.397Z,7.29
2023-03-21T02:31:14.667Z,7.16
2023-03-21T02:33:57.078Z,7.02
2023-03-21T02:36:27.161Z,7.18
2023-03-21T02:39:14.833Z,7.12
2023-03-21T02:41:49.449Z,7.07
2023-03-21T02:44:53.373Z,7.30
2023-03-21T02:47:44.526Z,7.12
2023-03-21T02:50:27.709Z,6.99
2023-03-21T02:52:56.073Z,7.06
2023-03-21T02:55:27.187Z,7.03
2023-03-21T02:58:11.760Z,6.91
2023-03-21T03:00:44.233Z,7.26
2023-03-21T03:03:24.880Z,7.10
2023-03-21T03:05:58.408Z,6.95
2023-03-21T03:09:03.314Z,7.04
2023-03-21T03:11:39.321Z,7.01
2023-03-21T03:14:38.452Z,6.86
2023-03-21T03:17:18.201Z,7.06
2023-03-21T03:20:18.677Z,7.01
2023-03-21T03:22:58.374Z,6.90
2023-03-21T03:25:42.973Z,7.13
2023-03-21T03:28:15.179Z,7.02
2023-03-21T03:30:57.097Z,6.81
2023-03-21T03:33:34.860Z,7.06
2023-03-21T03:36:06.556Z,7.01
2023-03-21T03:38:36.994Z,6.89
2023-03-21T03:41:12.128Z,7.19
2023-03-21T03:43:51.298Z,7.10
2023-03-21T03:46:27.097Z,6.96
2023-03-21T03:48:58.660Z,7.14
2023-03-21T03:51:44.304Z,7.15
2023-03-21T03:54:45.881Z,6.89
2023-03-21T03:57:14.470Z,6.97
2023-03-21T03:59:44.185Z,7.17
2023-03-21T04:02:22.654Z,7.00
2023-03-21T04:04:52.996Z,6.94
2023-03-21T04:07:22.428Z,7.11
2023-03-21T04:09:52.192Z,6.93
2023-03-21T04:12:20.847Z,6.96
2023-03-21T04:15:14.182Z,7.25
2023-03-21T04:17:45.674Z,7.16
2023-03-21T04:20:23.532Z,7.04
2023-03-21T04:22:57.597Z,7.03
2023-03-21T04:25:33.297Z,6.94
2023-03-21T04:28:03.026Z,6.83
2023-03-21T04:31:02.333Z,7.22
2023-03-21T04:33:38.650Z,7.18
2023-03-21T04:36:09.527Z,7.00
2023-03-21T04:38:37.447Z,7.18
2023-03-21T04:41:05.039Z,7.25
2023-03-21T04:43:32.230Z,7.03
2023-03-21T04:45:59.281Z,7.10
2023-03-21T04:48:26.282Z,7.17
2023-03-21T04:50:53.337Z,7.03
2023-03-21T04:53:20.350Z,7.09
2023-03-21T04:55:48.165Z,7.31
2023-03-21T04:58:16.275Z,7.20
2023-03-21T05:00:45.706Z,6.86
2023-03-21T05:03:19.831Z,7.10
2023-03-21T05:05:48.870Z,7.05
2023-03-21T05:08:16.397Z,7.03
2023-03-21T05:10:44.026Z,7.07
2023-03-21T05:13:11.554Z,7.05
2023-03-21T05:15:38.840Z,7.04
2023-03-21T05:18:10.998Z,7.05
2023-03-21T05:20:47.199Z,7.23
2023-03-21T05:23:18.670Z,7.14
2023-03-21T05:25:46.034Z,6.99
2023-03-21T05:28:22.143Z,7.22
2023-03-21T05:30:49.454Z,7.21
2023-03-21T05:33:16.775Z,6.99
2023-03-21T05:35:43.862Z,7.20
2023-03-21T05:38:12.683Z,7.32
2023-03-21T05:40:50.330Z,7.20
2023-03-21T05:43:18.048Z,7.14
2023-03-21T05:45:45.798Z,7.15
2023-03-21T05:48:12.995Z,7.10
2023-03-21T05:50:57.864Z,7.20
2023-03-21T05:53:25.212Z,7.52
2023-03-21T05:55:52.104Z,7.44
2023-03-21T05:58:44.080Z,7.21
2023-03-21T06:01:18.952Z,7.38
2023-03-21T06:03:54.265Z,7.45
2023-03-21T06:06:23.224Z,7.22
2023-03-21T06:08:54.245Z,7.29
2023-03-21T06:11:28.008Z,7.42
2023-03-21T06:14:11.704Z,7.26
2023-03-21T06:16:39.602Z,7.24
2023-03-21T06:19:07.337Z,7.60
2023-03-21T06:21:44.962Z,7.27
2023-03-21T06:24:12.126Z,7.24
2023-03-21T06:26:42.884Z,7.50
2023-03-21T06:29:10.833Z,7.31
2023-03-21T06:31:37.905Z,7.14
2023-03-21T06:34:05.650Z,7.31
2023-03-21T06:36:33.450Z,7.47
2023-03-21T06:39:01.001Z,7.40
2023-03-21T06:41:28.524Z,7.35
2023-03-21T06:44:02.833Z,7.73
2023-03-21T06:46:36.214Z,7.76
2023-03-21T06:49:04.233Z,7.58
2023-03-21T06:51:31.634Z,7.72
2023-03-21T06:54:06.919Z,7.92
2023-03-21T06:56:41.451Z,7.55
2023-03-21T06:59:11.520Z,7.60
2023-03-21T07:02:01.472Z,7.87
2023-03-21T07:04:29.879Z,7.71
2023-03-21T07:06:58.182Z,7.40
2023-03-21T07:09:29.136Z,7.71
2023-03-21T07:12:01.903Z,7.86
2023-03-21T07:14:39.441Z,7.79
2023-03-21T07:17:06.362Z,7.86
2023-03-21T07:19:33.224Z,8.15
2023-03-21T07:22:01.591Z,7.81
2023-03-21T07:24:29.128Z,7.68
2023-03-21T07:39:58.362Z,7.60
2023-03-21T07:42:26.282Z,7.23
2023-03-21T07:44:59.321Z,7.53
2023-03-21T07:47:29.805Z,7.66
2023-03-21T07:49:56.702Z,7.61
2023-03-21T07:52:23.630Z,7.45
2023-03-21T07:54:50.575Z,7.55
2023-03-21T07:57:17.838Z,7.64
2023-03-21T07:59:44.687Z,7.44
2023-03-21T08:02:20.723Z,7.57
2023-03-21T08:04:47.893Z,7.46
2023-03-21T08:07:14.912Z,7.39
2023-03-21T08:09:43.799Z,7.21
2023-03-21T08:12:11.672Z,7.61
2023-03-21T08:14:38.841Z,7.63
2023-03-21T08:17:06.661Z,7.34
2023-03-21T08:19:33.671Z,7.30
2023-03-21T08:22:01.436Z,7.51
2023-03-21T08:24:29.168Z,7.40
2023-03-21T08:26:56.228Z,7.26
2023-03-21T08:29:25.169Z,7.58
2023-03-21T08:31:52.167Z,7.52
2023-03-21T08:34:19.727Z,7.38
2023-03-21T08:36:47.205Z,7.28
2023-03-21T08:39:14.321Z,7.59
2023-03-21T08:41:41.498Z,7.67
2023-03-21T08:44:09.692Z,7.40
2023-03-21T08:46:36.670Z,7.28
2023-03-21T08:49:03.646Z,7.60
2023-03-21T08:51:31.924Z,7.53
2023-03-21T08:53:58.907Z,7.31
2023-03-21T08:56:25.972Z,7.62
2023-03-21T08:58:52.957Z,7.84
2023-03-21T09:01:20.095Z,7.78
2023-03-21T09:03:47.157Z,7.28
2023-03-21T09:06:14.668Z,7.56
2023-03-21T09:08:42.184Z,7.61
2023-03-21T09:11:10.859Z,7.59
2023-03-21T09:13:37.841Z,7.35
2023-03-21T09:16:05.440Z,7.57
2023-03-21T09:18:47.360Z,7.62
2023-03-21T09:21:16.965Z,7.27
2023-03-21T09:23:50.888Z,7.56
2023-03-21T09:26:18.030Z,7.87
2023-03-21T09:28:46.274Z,7.68
2023-03-21T09:31:16.653Z,7.41
2023-03-21T09:33:44.861Z,7.63
2023-03-21T09:36:14.483Z,7.54
2023-03-21T09:38:45.720Z,7.51
2023-03-21T09:41:37.790Z,7.61
2023-03-21T09:44:24.765Z,7.51
2023-03-21T09:47:04.300Z,7.64
2023-03-21T09:49:38.069Z,7.62
2023-03-21T09:52:14.019Z,7.45
2023-03-21T09:54:45.438Z,7.79
2023-03-21T09:57:50.663Z,7.65
2023-03-21T10:00:27.523Z,7.65
2023-03-21T10:03:01.916Z,7.92
2023-03-21T10:05:32.134Z,7.67
2023-03-21T10:08:24.696Z,7.91
2023-03-21T10:11:01.352Z,7.88
2023-03-21T10:13:33.269Z,8.03
2023-03-21T10:16:34.824Z,8.22
2023-03-21T10:19:09.900Z,8.03
2023-03-21T10:24:28.673Z,7.95
2023-03-21T10:26:57.020Z,8.15
2023-03-21T10:29:32.730Z,8.26
2023-03-21T10:32:00.498Z,8.07
2023-03-21T10:34:41.878Z,8.59
2023-03-21T10:37:09.202Z,8.49
2023-03-21T10:39:42.198Z,8.26
2023-03-21T10:42:23.930Z,8.47
2023-03-21T10:44:56.705Z,8.59
2023-03-21T10:47:27.829Z,8.27
2023-03-21T10:50:11.113Z,8.61
2023-03-21T10:52:45.674Z,8.70
2023-03-21T10:55:18.770Z,8.47
2023-03-21T10:57:47.412Z,8.87
2023-03-21T11:00:29.368Z,8.86
2023-03-21T11:02:57.630Z,8.31
2023-03-21T11:05:39.052Z,8.90
2023-03-21T11:08:18.087Z,9.16
2023-03-21T11:11:10.123Z,8.82
2023-03-21T11:13:38.804Z,9.35
2023-03-21T11:16:10.401Z,9.44
2023-03-21T11:18:45.754Z,9.45
2023-03-21T11:21:14.941Z,9.77
2023-03-21T11:23:48.210Z,9.88
2023-03-21T11:26:44.566Z,9.96
2023-03-21T11:29:43.815Z,9.98
2023-03-21T11:32:27.487Z,9.62
2023-03-21T11:35:00.348Z,9.42
2023-03-21T11:37:32.373Z,9.27
2023-03-21T11:40:28.446Z,9.43
2023-03-21T11:42:58.080Z,9.45
2023-03-21T11:45:36.086Z,9.13
2023-03-21T11:48:14.477Z,9.23
2023-03-21T11:50:50.369Z,9.42
2023-03-21T11:53:49.936Z,9.49
2023-03-21T11:56:26.075Z,9.42
2023-03-21T11:59:15.981Z,9.41
2023-03-21T12:02:06.055Z,9.35
2023-03-21T12:04:49.060Z,9.47
2023-03-21T12:07:28.177Z,9.28
2023-03-21T12:10:33.472Z,9.16
2023-03-21T12:13:05.785Z,8.98
2023-03-21T12:15:58.825Z,9.11
2023-03-21T12:18:34.723Z,9.06
2023-03-21T12:21:48.705Z,8.96
2023-03-21T12:24:20.837Z,9.07
2023-03-21T12:26:58.159Z,9.11
2023-03-21T12:29:43.937Z,9.28
2023-03-21T12:32:34.526Z,9.61
2023-03-21T12:35:35.999Z,9.70
2023-03-21T12:38:36.621Z,9.38
2023-03-21T12:41:10.445Z,9.26
2023-03-21T12:43:45.766Z,9.22
2023-03-21T12:46:24.704Z,9.10
2023-03-21T12:49:00.492Z,8.93
2023-03-21T12:51:33.303Z,9.04
2023-03-21T12:54:23.691Z,9.03
2023-03-21T12:56:58.250Z,8.98
2023-03-21T12:59:37.353Z,8.87
2023-03-21T13:02:20.548Z,8.90
2023-03-21T13:05:12.900Z,8.90
2023-03-21T13:07:44.199Z,8.95
2023-03-21T13:10:17.279Z,8.86
2023-03-21T13:12:51.447Z,8.64
2023-03-21T13:15:41.899Z,8.47
2023-03-21T13:18:33.176Z,8.39
2023-03-21T13:21:05.759Z,8.40
2023-03-21T13:23:38.105Z,8.39
2023-03-21T13:26:12.866Z,8.28
2023-03-21T13:28:42.106Z,8.02
2023-03-21T13:31:19.004Z,8.27
2023-03-21T13:33:49.537Z,8.28
2023-03-21T13:36:23.362Z,8.22
2023-03-21T13:38:52.464Z,8.27
2023-03-21T13:41:26.729Z,8.29
2023-03-21T13:43:53.730Z,8.19
2023-03-21T13:46:27.016Z,7.99
2023-03-21T13:48:58.839Z,7.98
2023-03-21T13:51:29.450Z,7.76
2023-03-21T13:54:07.154Z,7.73
2023-03-21T13:56:46.529Z,7.65
2023-03-21T13:59:35.837Z,7.60
2023-03-21T14:02:32.187Z,7.62
2023-03-21T14:05:14.612Z,7.59
2023-03-21T14:07:44.178Z,7.52
2023-03-21T14:10:23.602Z,7.42
2023-03-21T14:12:53.330Z,7.45
2023-03-21T14:15:24.174Z,7.56
2023-03-21T14:17:56.727Z,7.61
2023-03-21T14:20:30.766Z,7.55
2023-03-21T14:22:58.459Z,7.59
2023-03-21T14:25:37.285Z,7.50
2023-03-21T14:28:18.215Z,7.48
2023-03-21T14:30:46.261Z,7.56
2023-03-21T14:33:32.676Z,7.58
2023-03-21T14:36:07.009Z,7.52
2023-03-21T14:38:35.913Z,7.53
2023-03-21T14:41:04.231Z,7.35
2023-03-21T14:43:34.595Z,7.42
2023-03-21T14:46:02.334Z,7.43
2023-03-21T14:48:34.634Z,7.48
2023-03-21T14:51:12.422Z,7.54
2023-03-21T14:53:42.742Z,7.32
2023-03-21T14:56:25.752Z,7.37
2023-03-21T14:58:54.070Z,7.31
2023-03-21T15:01:28.144Z,7.44
2023-03-21T15:03:55.821Z,7.33
2023-03-21T15:06:22.868Z,7.23
2023-03-21T15:09:01.944Z,7.32
2023-03-21T15:11:32.068Z,7.37
2023-03-21T15:14:02.292Z,7.29
2023-03-21T15:16:30.472Z,7.41
2023-03-21T15:18:58.684Z,7.41
2023-03-21T15:21:51.193Z,7.40
2023-03-21T15:24:36.303Z,7.43
2023-03-21T15:27:13.948Z,7.40
2023-03-21T15:29:42.944Z,7.45
2023-03-21T15:32:28.999Z,7.49
2023-03-21T15:35:06.372Z,7.31
2023-03-21T15:37:36.893Z,7.28
2023-03-21T15:40:31.391Z,7.14
2023-03-21T15:43:21.016Z,7.23
2023-03-21T15:45:57.042Z,7.24
2023-03-21T15:48:29.158Z,7.21
2023-03-21T15:50:56.246Z,7.11
2023-03-21T15:53:23.840Z,7.17
2023-03-21T15:55:53.532Z,7.17
2023-03-21T15:58:26.903Z,7.20
2023-03-21T16:01:02.323Z,7.20
2023-03-21T16:03:32.976Z,7.24
2023-03-21T16:06:15.491Z,7.12
2023-03-21T16:08:46.184Z,7.16
2023-03-21T16:11:21.060Z,7.22
2023-03-21T16:13:48.422Z,7.17
2023-03-21T16:16:33.593Z,7.02
2023-03-21T16:19:01.788Z,7.10
2023-03-21T16:21:30.998Z,7.12
2023-03-21T16:23:58.536Z,7.09
2023-03-21T16:26:28.854Z,7.17
2023-03-21T16:28:56.614Z,7.16
2023-03-21T16:31:26.723Z,7.15
2023-03-21T16:33:53.975Z,7.04
2023-03-21T16:36:24.552Z,7.11
2023-03-21T16:38:53.249Z,7.23
2023-03-21T16:41:21.490Z,7.14
2023-03-21T16:43:48.678Z,7.19
2023-03-21T16:46:18.189Z,7.17
2023-03-21T16:48:47.965Z,7.17
2023-03-21T16:51:16.826Z,7.26
2023-03-21T16:53:44.649Z,7.29
2023-03-21T16:56:21.946Z,7.19
2023-03-21T16:58:49.541Z,7.20
2023-03-21T17:01:21.887Z,7.26
2023-03-21T17:03:48.897Z,7.23
2023-03-21T17:06:18.473Z,7.24
2023-03-21T17:08:45.933Z,7.21
2023-03-21T17:11:17.003Z,7.25
2023-03-21T17:13:44.790Z,7.34
2023-03-21T17:16:17.428Z,7.26
2023-03-21T17:18:45.275Z,7.29
2023-03-21T17:21:14.937Z,7.37
2023-03-21T17:23:42.571Z,7.33
2023-03-21T17:26:13.606Z,7.34
2023-03-21T17:28:41.578Z,7.38
2023-03-21T17:31:20.851Z,7.28
2023-03-21T17:33:48.560Z,7.04
2023-03-21T17:36:34.065Z,6.81
2023-03-21T17:39:01.400Z,6.65
2023-03-21T17:41:28.839Z,6.58
2023-03-21T17:43:57.461Z,6.54
2023-03-21T17:46:27.339Z,6.89
2023-03-21T17:48:54.974Z,6.55
2023-03-21T17:51:23.994Z,6.64
2023-03-21T17:53:51.224Z,6.68
2023-03-21T17:56:26.289Z,6.55
2023-03-21T17:58:57.330Z,6.79
2023-03-21T18:01:24.437Z,6.69
2023-03-21T18:03:51.798Z,6.61
2023-03-21T18:06:21.027Z,6.83
2023-03-21T18:08:49.098Z,6.68
2023-03-21T18:11:18.148Z,6.48
2023-03-21T18:13:45.602Z,6.67
2023-03-21T18:16:14.998Z,6.52
2023-03-21T18:18:42.490Z,6.57
2023-03-21T18:21:10.916Z,6.67
2023-03-21T18:23:41.299Z,6.61
2023-03-21T18:26:10.831Z,6.66
2023-03-21T18:28:40.006Z,6.85
2023-03-21T18:31:15.685Z,6.57
2023-03-21T18:33:46.766Z,6.73
2023-03-21T18:36:24.489Z,6.74
2023-03-21T18:38:52.253Z,6.53
2023-03-21T18:41:19.851Z,6.78
2023-03-21T18:44:13.373Z,6.68
2023-03-21T18:46:34.005Z,6.55
2023-03-21T18:49:19.887Z,6.76
2023-03-21T18:51:48.219Z,6.58
2023-03-21T18:54:15.791Z,6.79
2023-03-21T18:59:34.638Z,6.55
2023-03-21T19:02:04.112Z,6.76
2023-03-21T19:04:32.269Z,6.70
2023-03-21T19:07:00.339Z,6.57
2023-03-21T19:09:31.575Z,6.72
2023-03-21T19:12:00.054Z,6.62
2023-03-21T19:14:27.724Z,6.68
2023-03-21T19:17:47.208Z,6.69
2023-03-21T19:19:43.864Z,6.56
2023-03-21T19:22:11.410Z,6.70
2023-03-21T19:24:40.427Z,6.71
2023-03-21T19:27:07.725Z,6.75
2023-03-21T19:41:55.373Z,6.23
2023-03-21T19:44:30.929Z,6.24
2023-03-21T19:46:58.038Z,6.50
2023-03-21T19:49:34.760Z,6.33
2023-03-21T19:52:13.510Z,6.71
2023-03-21T19:54:40.390Z,6.55
2023-03-21T19:57:09.653Z,6.62
2023-03-21T19:59:36.627Z,6.67
2023-03-21T20:02:27.038Z,6.52
2023-03-21T20:04:51.016Z,6.73
2023-03-21T20:07:17.918Z,6.53
2023-03-21T20:09:51.756Z,6.69
2023-03-21T20:12:19.838Z,6.55
2023-03-21T20:14:49.106Z,6.57
2023-03-21T20:17:16.614Z,6.75
2023-03-21T20:19:43.513Z,6.64
2023-03-21T20:22:21.885Z,6.67
2023-03-21T20:24:55.282Z,6.87
2023-03-21T20:27:25.302Z,6.69
2023-03-21T20:30:10.051Z,6.79
2023-03-21T20:32:38.661Z,6.86
2023-03-21T20:35:19.143Z,6.74
2023-03-21T20:37:53.092Z,6.78
2023-03-21T20:40:21.580Z,6.82
2023-03-21T20:42:48.806Z,6.64
2023-03-21T20:45:17.448Z,6.91
2023-03-21T20:47:45.650Z,6.77
2023-03-21T20:50:14.292Z,6.78
2023-03-21T20:53:01.255Z,6.83
2023-03-21T20:55:34.394Z,6.75
2023-03-21T20:58:02.162Z,6.85
2023-03-21T21:00:29.912Z,6.79
2023-03-21T21:02:58.166Z,6.76
2023-03-21T21:05:33.100Z,7.00
2023-03-21T21:08:01.929Z,6.89
2023-03-21T21:10:29.758Z,6.82
2023-03-21T21:12:56.970Z,6.90
2023-03-21T21:15:24.081Z,6.84
2023-03-21T21:18:05.343Z,6.86
2023-03-21T21:20:33.795Z,6.82
2023-03-21T21:23:01.117Z,6.80
2023-03-21T21:25:30.644Z,6.89
2023-03-21T21:27:57.919Z,6.67
2023-03-21T21:30:24.983Z,6.77
2023-03-21T21:32:51.910Z,6.83
2023-03-21T21:35:20.614Z,6.75
2023-03-21T21:37:47.755Z,6.89
2023-03-21T21:40:18.988Z,6.66
2023-03-21T21:42:46.382Z,6.68
2023-03-21T21:45:13.826Z,6.75
2023-03-21T21:47:41.023Z,6.67
2023-03-21T21:50:08.395Z,6.82
2023-03-21T21:52:37.466Z,6.71
2023-03-21T21:55:06.627Z,6.74
2023-03-21T21:57:34.858Z,6.79
2023-03-21T22:00:07.006Z,6.68
2023-03-21T22:02:40.768Z,6.83
2023-03-21T22:05:09.062Z,6.91
2023-03-21T22:07:38.174Z,6.82
2023-03-21T22:10:06.703Z,7.05
2023-03-21T22:12:33.994Z,7.18
2023-03-21T22:15:01.212Z,7.05
2023-03-21T22:17:28.896Z,7.14
2023-03-21T22:20:05.506Z,7.11
2023-03-21T22:22:34.427Z,7.07
2023-03-21T22:25:01.386Z,7.14
2023-03-21T22:27:28.708Z,7.09
2023-03-21T22:29:56.193Z,6.95
2023-03-21T22:32:23.939Z,6.97
2023-03-21T22:34:50.831Z,6.93
2023-03-21T22:37:27.561Z,6.74
2023-03-21T22:40:06.301Z,6.93
2023-03-21T22:42:40.439Z,6.91
2023-03-21T22:45:14.186Z,6.92
2023-03-21T22:47:43.593Z,7.09
2023-03-21T22:50:24.822Z,6.93
2023-03-21T22:52:55.140Z,6.80
2023-03-21T22:55:29.154Z,6.94
2023-03-21T22:58:03.960Z,6.76
2023-03-21T23:00:41.195Z,6.88
2023-03-21T23:03:13.529Z,6.93
2023-03-21T23:05:46.289Z,6.80
2023-03-21T23:08:16.631Z,7.01
2023-03-21T23:10:46.061Z,6.99
2023-03-21T23:13:13.103Z,7.06
2023-03-21T23:15:40.716Z,7.20
2023-03-21T23:18:07.769Z,7.05
2023-03-21T23:20:35.512Z,7.12
2023-03-21T23:23:03.117Z,7.19
2023-03-21T23:25:30.507Z,7.12
2023-03-21T23:27:57.698Z,7.04
2023-03-21T23:30:24.853Z,7.11
2023-03-21T23:32:52.366Z,7.04
2023-03-21T23:35:19.405Z,7.12
2023-03-21T23:37:52.648Z,7.19
2023-03-21T23:40:20.615Z,7.12
2023-03-21T23:42:47.562Z,7.23
2023-03-21T23:45:14.600Z,7.20
2023-03-21T23:47:41.674Z,7.20
2023-03-21T23:50:13.243Z,7.29
2023-03-21T23:52:41.784Z,7.22
2023-03-21T23:55:09.286Z,7.10
2023-03-21T23:57:38.332Z,7.27
